FNBG METAR and TAF | Updated Today

FNBG METAR

Benguela Airport

Benguela Airport (FNBG) hasn't published a METAR.
We found the following current weather conditions for Docota from other sources.

Benguela Airport (FNBG) METAR

  • Weather conditions right now at FNBG:
  • Present conditions: Clouds
  • Clouds: Overcast clouds
  • Cloud cover: 100%
  • Wind: 260 at 5kts
  • Temperature: 25.2 celsius
  • Feels like: 25.8 celsius
  • Pressure: 1012mb
  • Humidity: 78%


Useful to know...

FNBG TAF

Benguela Airport

TAF FNBG 061055Z 0612/0624 28011KT 9999 FEW018
Observation time: 7:40 hr. ago
Need help? Read our tutorial on how to read TAFs or read the parsed version below.

Parsed version of TAF for Benguela Airport (FNBG)

  • From 06 February at 12:00 UTC, to day 06 of the month at 24:00 UTC
  • Clouds: A few at 549 meters
  • Visibility: Greater than 10 km
  • Wind: 280 degrees at 11